Flight Track Log - Related Links

Times and Time Zones

All times are in EDT time to prevent confusion due to time zone crossing. See the N180KT flight status page for this flight to view local times or setup timezone preferences in your user account.


Time Position Orientation Groundspeed Altitude Reporting Facility
EDT Latitude Longitude Course Direction KTS MPH feet Rate Location/Type
Tue 09:59:42 AM 34.0667 -84.6333 40° Northeast 136 157 2,800  Level Atlanta TRACON
Tue 10:00:48 AM 34.1183 -84.6386 355° North 156 180 3,500 714 Climbing Atlanta Center
Tue 10:01:48 AM 34.1581 -84.6414 357° North 151 174 4,300 750 Climbing Atlanta Center
Tue 10:02:48 AM 34.1978 -84.6442 357° North 140 161 5,000 750 Climbing Atlanta Center
Tue 10:03:48 AM 34.2353 -84.6469 356° North 140 161 5,800 650 Climbing Atlanta Center
Tue 10:04:00 AM 34.2138 -84.5575 29° Northeast  Level FlightAware Approximate
Tue 10:04:48 AM 34.2706 -84.6697 332° Northwest 140 161 6,300  Level Atlanta Center
Tue 10:05:00 AM 34.2515 -84.5318 40° Northeast  Level FlightAware Approximate
Tue 10:05:48 AM 34.2975 -84.7000 317° Northwest 135 155 6,700  Level Atlanta Center
Tue 10:06:48 AM 34.3244 -84.7306 317° Northwest 140 161 7,100 450 Climbing Atlanta Center
Tue 10:07:48 AM 34.3556 -84.7608 321° Northwest 140 161 7,600 450 Climbing Atlanta Center
Tue 10:08:48 AM 34.3825 -84.7939 315° West 145 167 8,000 200 Climbing Atlanta Center
Tue 10:09:48 AM 34.4136 -84.8294 317° Northwest 145 167 8,000  Level Atlanta Center
Tue 10:10:48 AM 34.4469 -84.8650 319° Northwest 145 167 8,000  Level Atlanta Center
Tue 10:11:48 AM 34.4819 -84.9031 318° Northwest 152 175 8,000  Level Atlanta Center
Tue 10:12:48 AM 34.5111 -84.9361 317° Northwest 152 175 8,000  Level Atlanta Center
Tue 10:13:48 AM 34.5483 -84.9769 318° Northwest 152 175 8,000  Level Atlanta Center
Tue 10:14:48 AM 34.5814 -85.0125 318° Northwest 157 181 8,000  Level Atlanta Center
Tue 10:16:00 AM 34.6165 -85.0527 317° Northwest  Level FlightAware Approximate
Tue 10:23:00 AM 34.8209 -85.2877 317° Northwest  Level FlightAware Approximate
Tue 10:24:00 AM 34.8501 -85.3213 317° Northwest  Level FlightAware Approximate
Tue 10:25:00 AM 34.8793 -85.3550 317° Northwest  Level FlightAware Approximate
Tue 10:26:00 AM 34.9084 -85.3887 317° Northwest  Level FlightAware Approximate
Tue 10:27:00 AM 34.9375 -85.4225 317° Northwest  Level FlightAware Approximate
Tue 10:28:00 AM 34.9667 -85.4562 316° Northwest  Level FlightAware Approximate
Tue 10:29:00 AM 34.9958 -85.4900 316° Northwest  Level FlightAware Approximate
Tue 10:29:26 AM 35.0519 -85.5503 316° Northwest 160 184 8,000  Level Memphis Center
Tue 10:30:00 AM 35.0249 -85.5238 316° Northwest  Level FlightAware Approximate
Tue 10:30:26 AM 35.0844 -85.5867 318° Northwest 160 184 8,000  Level Memphis Center
Tue 10:31:00 AM 35.0540 -85.5576 316° Northwest  Level FlightAware Approximate
Tue 10:31:26 AM 35.1194 -85.6303 314° West 160 184 8,000  Level Memphis Center
Tue 10:32:00 AM 35.0831 -85.5915 316° Northwest  Level FlightAware Approximate
Tue 10:32:26 AM 35.1544 -85.6689 318° Northwest 160 184 8,000  Level Memphis Center
Tue 10:33:00 AM 35.1122 -85.6254 316° Northwest  Level FlightAware Approximate
Tue 10:33:26 AM 35.1872 -85.7078 316° Northwest 160 184 8,000  Level Memphis Center
Tue 10:34:26 AM 35.2197 -85.7439 318° Northwest 160 184 8,000  Level Memphis Center
Tue 10:35:26 AM 35.2525 -85.7828 316° Northwest 160 184 8,000  Level Memphis Center
Tue 10:36:26 AM 35.2872 -85.8192 319° Northwest 160 184 8,000  Level Memphis Center
Tue 10:37:26 AM 35.3200 -85.8581 316° Northwest 160 184 8,000  Level Memphis Center
Tue 10:38:26 AM 35.3528 -85.8994 314° West 160 184 8,000  Level Memphis Center
Tue 10:39:26 AM 35.3856 -85.9386 316° Northwest 160 184 8,000  Level Memphis Center
Tue 10:40:26 AM 35.4203 -85.9775 318° Northwest 160 184 8,000 -50 Level Memphis Center
Tue 10:41:26 AM 35.4550 -86.0189 316° Northwest 160 184 7,900 -300 Descending Memphis Center
Tue 10:42:26 AM 35.4897 -86.0581 317° Northwest 160 184 7,400 -450 Descending Memphis Center
Tue 10:43:26 AM 35.5267 -86.1019 316° Northwest 165 190 7,000 -450 Descending Memphis Center
Tue 10:44:26 AM 35.5636 -86.1433 318° Northwest 170 196 6,500 -500 Descending Memphis Center
Tue 10:45:26 AM 35.5983 -86.1850 316° Northwest 170 196 6,000 -250 Descending Memphis Center
Tue 10:46:26 AM 35.6353 -86.2292 316° Northwest 175 201 6,000  Level Memphis Center
Tue 10:47:26 AM 35.6658 -86.2711 312° West 169 194 6,000  Level Memphis Center
Tue 10:48:26 AM 35.6939 -86.3031 317° Northwest 163 188 6,000 -250 Level Memphis Center
Tue 10:49:26 AM 35.7061 -86.3586 285° West 153 176 5,500 -500 Descending Memphis Center
Tue 10:50:26 AM 35.7183 -86.4142 285° West 174 200 5,000 -500 Descending Memphis Center
Tue 10:51:26 AM 35.7328 -86.4697 288° West 175 201 4,500 -500 Descending Memphis Center
Tue 10:52:26 AM 35.7444 -86.5128 288° West 152 175 4,000 -250 Descending Memphis Center
Tue 10:53:26 AM 35.7519 -86.5558 282° West 132 152 4,000  Level Memphis Center
Tue 10:54:26 AM 35.7661 -86.6089 288° West 139 160 4,000  Level Memphis Center
Tue 10:55:26 AM 35.7781 -86.6544 288° West 145 167 4,000  Level Memphis Center
Tue 10:56:26 AM 35.7917 -86.6947 293° West 145 167 4,000  Level Memphis Center
Tue 10:57:26 AM 35.8217 -86.7242 321° Northwest 131 151 4,000  Level Memphis Center
Tue 10:59:31 AM 35.8833 -86.8000 315° West 145 167 4,000 -34 Level Nashville TRACON
Tue 11:00:25 AM 35.9167 -86.8167 338° Northwest 146 168 3,900 -333 Descending Nashville TRACON
Tue 11:01:19 AM 35.9333 -86.8500 302° West 141 162 3,400 -526 Descending Nashville TRACON
Tue 11:02:19 AM 35.9667 -86.8833 321° Northwest 125 144 2,900 -200 Descending Nashville TRACON
Tue 11:03:19 AM 36.0000 -86.8833 360° North 136 157 3,000 45 Climbing Nashville TRACON
Tue 11:04:31 AM 36.0333 -86.8833 360° North 123 142 3,000  Level Nashville TRACON

Login

Don't have an account? Register now (free) for customized features, flight alerts, and more!